Impacts METAR Board
IDs:

KBWI - Baltimore-Washington, MD, US

Updated at: 0400 UTC 22 Apr 2018
Potential Impact None Slight Moderate High
Time 21/16Z 21/17Z 21/18Z 21/19Z 21/20Z 21/21Z 21/22Z 21/23Z 22/00Z 22/01Z 22/02Z 22/03Z 22/04Z
Temp54 57 58 60 61 60 60 60 54 52 50 47 47
Dewpt28 27 25 26 27 25 28 27 31 31 31 33 35
Altim30.45 30.41 30.39 30.36 30.34 30.33 30.33 30.33 30.34 30.36 30.37 30.37 30.37
VIS10 10 10 10 10 10 10 10 10 10 10 10 10
CIG250 250 250 250 250 250 250 250 250 250 250 250 170
CoverBKNBKNBKNBKNBKNBKNBKNBKNBKNBKNBKNOVCOVC
FltCatVFRVFRVFRVFRVFRVFRVFRVFRVFRVFRVFRVFRVFR
WX--------------------------
WDir2800260025029026001500000
WSpd11 4 5 4 5 5 5 3 5 0 0 0 0
WGst-- -- -- -- -- -- -- -- -- -- -- -- --
Raw hourly METARs
KBWI 211554Z 28011KT 10SM BKN250 12/M02 A3045 RMK AO2 SLP312 T01221022
KBWI 211654Z VRB04KT 10SM BKN250 14/M03 A3041 RMK AO2 SLP299 T01391028
KBWI 211754Z COR 26005KT 10SM BKN250 14/M04 A3039 RMK AO2 SLP290 T01441039 10144 20044 57030
KBWI 211854Z COR VRB04KT 10SM BKN250 16/M03 A3036 RMK AO2 SLP283 T01561033
KBWI 211954Z 25005KT 10SM BKN250 16/M03 A3034 RMK AO2 SLP275 T01611028
KBWI 212054Z 29005KT 10SM BKN250 16/M04 A3033 RMK AO2 SLP271 T01561039 56019
KBWI 212154Z 26005KT 10SM FEW160 BKN250 16/M02 A3033 RMK AO2 SLP271 T01561022
KBWI 212254Z VRB03KT 10SM FEW120 BKN250 16/M03 A3033 RMK AO2 SLP272 T01561028
KBWI 212354Z 15005KT 10SM FEW110 FEW170 BKN250 12/M01 A3034 RMK AO2 SLP276 T01221006 10167 20122 53004
KBWI 220054Z 00000KT 10SM FEW160 BKN250 11/M01 A3036 RMK AO2 SLP281 T01111006
KBWI 220154Z 00000KT 10SM SCT140 BKN250 10/M01 A3037 RMK AO2 SLP285 T01001006
KBWI 220254Z 00000KT 10SM SCT150 OVC250 08/01 A3037 RMK AO2 SLP286 T00830006 51010
KBWI 220354Z 00000KT 10SM FEW140 BKN170 OVC250 08/02 A3037 RMK AO2 SLP284 T00830017



Page loaded:  04:45 UTC  |   09:45 PM Pacific  |   10:45 PM Mountain  |   11:45 PM Central  |   12:45 AM Eastern

 

ADVISORIES

FORECASTS

FORECASTS

OBSERVATIONS

USER TOOLS

ABOUT US